Terminal Aerodrome Forecast
Issued by NWS

Home | Current Version | Previous Version | Text Only | Print | Product List | Glossary On
Versions: 1 2 3 4 5 6 7 8 9 10 11 12 13
000
FTUS44 KBMX 251740
TAFMGM
TAF
KMGM 251740Z 2518/2618 23010G17KT P6SM SCT027 BKN035
      TEMPO 2520/2524 3SM TSRA BR BKN040CB
     FM260000 24009KT P6SM SCT150
     FM261100 23004KT 4SM BR BKN015
     FM261500 28009KT P6SM BKN040=

USA.gov is the U.S. government's official web portal to all federal, state and local government web resources and services.